Strona główna
METAR-TAF:

METAR-TAF

Lotnisko :

Port lotniczy Londyn-Biggin Hill

Londyn Biggin Hill, Anglia

Szerokość geograficzna: 51-19N, Długość geograficzna: 000-02E, wysokość: 183 m

Aktualna obserwacja pogody

Raport powstał 4 godziny i 44 minut temu, godzina 20:20 UTC
Wiatr 6 kt od wschodnio-południowy wschód
Temperatura 7°C
Wilgotność 70%
Ciśnienie 1019 hPa
Widzialność 10 km lub więcej
Brak chmur poniżej 1500 m i brak chmur cumulonimbus

METAR: EGKB 042020Z 11006KT CAVOK 07/02 Q1019

czas: 02:04 (01:04 UTC)

Prognoza

Raport powstał 7 godziny i 59 minut temu, godzina 17:05 UTC
Prognoza ważna od 04 godzina 18 UTC do 04 godzina 21 UTC
Wiatr 8 kt od południowo-południowy wschód
Widzialność 10 km lub więcej
Brak chmur poniżej 1500 m i brak chmur cumulonimbus

TAF: EGKB 041705Z 0418/0421 15008KT CAVOK

Obserwacja i prognoza pogody dla ponad 4000 lotnisk (raport METAR i TAF).

Dostępne stacje oznaczono żółtymi i czerwonymi punktami na mapie.

Najedź kursorem aby zobaczyć nazwę stacji.

Kliknij aby zobaczyć obserwacje i prognozy pogody.

Aby zmienić mapę: kliknij na zielony przycisk z czarnym krzyżykiem, aby powiększyć; na zielony przycisk z myślnikiem, aby pomniejszyć; na zielone strzałki, aby przejść do map sąsiednich.


METAR-TAF: